sensor_id;sensor_type;location;lat;lon;timestamp;P1;durP1;ratioP1;P2;durP2;ratioP2
50417;SDS011;36346;48.280;14.292;2024-02-28T00:00:31;18.20;;;18.13;;
50417;SDS011;36346;48.280;14.292;2024-02-28T00:02:59;18.35;;;18.32;;
50417;SDS011;36346;48.280;14.292;2024-02-28T00:05:27;18.10;;;18.08;;
50417;SDS011;36346;48.280;14.292;2024-02-28T00:07:55;18.33;;;18.33;;
50417;SDS011;36346;48.280;14.292;2024-02-28T00:10:23;18.94;;;18.90;;
50417;SDS011;36346;48.280;14.292;2024-02-28T00:12:51;18.78;;;18.72;;
50417;SDS011;36346;48.280;14.292;2024-02-28T00:15:19;18.50;;;18.49;;
50417;SDS011;36346;48.280;14.292;2024-02-28T00:17:51;18.82;;;18.81;;
50417;SDS011;36346;48.280;14.292;2024-02-28T00:20:19;18.12;;;18.08;;
50417;SDS011;36346;48.280;14.292;2024-02-28T00:22:47;18.27;;;18.27;;
50417;SDS011;36346;48.280;14.292;2024-02-28T00:25:15;19.04;;;19.04;;
50417;SDS011;36346;48.280;14.292;2024-02-28T00:27:43;18.88;;;18.83;;
50417;SDS011;36346;48.280;14.292;2024-02-28T00:30:12;18.82;;;18.78;;
50417;SDS011;36346;48.280;14.292;2024-02-28T00:32:40;19.18;;;19.10;;
50417;SDS011;36346;48.280;14.292;2024-02-28T00:35:08;18.58;;;18.33;;
50417;SDS011;36346;48.280;14.292;2024-02-28T00:37:36;19.82;;;19.65;;
50417;SDS011;36346;48.280;14.292;2024-02-28T00:40:04;20.01;;;19.94;;
50417;SDS011;36346;48.280;14.292;2024-02-28T00:42:33;19.25;;;19.25;;
50417;SDS011;36346;48.280;14.292;2024-02-28T00:45:01;19.72;;;19.60;;
50417;SDS011;36346;48.280;14.292;2024-02-28T00:47:30;18.67;;;18.63;;
50417;SDS011;36346;48.280;14.292;2024-02-28T00:49:58;19.00;;;18.93;;
50417;SDS011;36346;48.280;14.292;2024-02-28T00:52:26;19.26;;;19.18;;
50417;SDS011;36346;48.280;14.292;2024-02-28T00:54:54;19.70;;;19.69;;
50417;SDS011;36346;48.280;14.292;2024-02-28T00:57:22;19.01;;;18.95;;
50417;SDS011;36346;48.280;14.292;2024-02-28T00:59:50;18.84;;;18.69;;
50417;SDS011;36346;48.280;14.292;2024-02-28T01:02:19;18.70;;;18.69;;
50417;SDS011;36346;48.280;14.292;2024-02-28T01:04:47;19.05;;;19.02;;
50417;SDS011;36346;48.280;14.292;2024-02-28T01:07:15;19.25;;;19.02;;
50417;SDS011;36346;48.280;14.292;2024-02-28T01:09:44;18.21;;;18.18;;
50417;SDS011;36346;48.280;14.292;2024-02-28T01:12:12;18.60;;;18.59;;
50417;SDS011;36346;48.280;14.292;2024-02-28T01:14:40;19.34;;;19.17;;
50417;SDS011;36346;48.280;14.292;2024-02-28T01:17:08;19.43;;;19.29;;
50417;SDS011;36346;48.280;14.292;2024-02-28T01:19:36;18.78;;;18.77;;
50417;SDS011;36346;48.280;14.292;2024-02-28T01:22:04;18.64;;;18.61;;
50417;SDS011;36346;48.280;14.292;2024-02-28T01:24:32;19.38;;;19.38;;
50417;SDS011;36346;48.280;14.292;2024-02-28T01:27:01;19.05;;;19.05;;
50417;SDS011;36346;48.280;14.292;2024-02-28T01:29:29;18.90;;;18.88;;
50417;SDS011;36346;48.280;14.292;2024-02-28T01:31:57;18.99;;;18.98;;
50417;SDS011;36346;48.280;14.292;2024-02-28T01:34:25;19.38;;;19.34;;
50417;SDS011;36346;48.280;14.292;2024-02-28T01:36:53;19.45;;;19.41;;
50417;SDS011;36346;48.280;14.292;2024-02-28T01:39:22;19.56;;;19.55;;
50417;SDS011;36346;48.280;14.292;2024-02-28T01:41:54;20.12;;;20.07;;
50417;SDS011;36346;48.280;14.292;2024-02-28T01:44:22;20.77;;;20.74;;
50417;SDS011;36346;48.280;14.292;2024-02-28T01:46:50;20.43;;;20.41;;
50417;SDS011;36346;48.280;14.292;2024-02-28T01:49:19;22.25;;;22.25;;
50417;SDS011;36346;48.280;14.292;2024-02-28T01:51:47;22.26;;;22.26;;
50417;SDS011;36346;48.280;14.292;2024-02-28T01:54:16;21.99;;;21.98;;
50417;SDS011;36346;48.280;14.292;2024-02-28T01:56:44;22.84;;;22.80;;
50417;SDS011;36346;48.280;14.292;2024-02-28T01:59:14;22.05;;;22.05;;
50417;SDS011;36346;48.280;14.292;2024-02-28T02:01:45;22.06;;;22.01;;
50417;SDS011;36346;48.280;14.292;2024-02-28T02:04:13;22.69;;;22.61;;
50417;SDS011;36346;48.280;14.292;2024-02-28T02:06:42;22.39;;;22.39;;
50417;SDS011;36346;48.280;14.292;2024-02-28T02:09:12;21.95;;;21.95;;
50417;SDS011;36346;48.280;14.292;2024-02-28T02:11:41;22.23;;;22.20;;
50417;SDS011;36346;48.280;14.292;2024-02-28T02:14:09;22.71;;;22.64;;
50417;SDS011;36346;48.280;14.292;2024-02-28T02:16:37;21.86;;;21.84;;
50417;SDS011;36346;48.280;14.292;2024-02-28T02:19:05;21.50;;;21.48;;
50417;SDS011;36346;48.280;14.292;2024-02-28T02:21:41;21.93;;;21.88;;
50417;SDS011;36346;48.280;14.292;2024-02-28T02:24:18;21.19;;;21.13;;
50417;SDS011;36346;48.280;14.292;2024-02-28T02:26:46;21.64;;;21.54;;
50417;SDS011;36346;48.280;14.292;2024-02-28T02:29:14;21.04;;;21.02;;
50417;SDS011;36346;48.280;14.292;2024-02-28T02:31:43;21.32;;;21.30;;
50417;SDS011;36346;48.280;14.292;2024-02-28T02:34:11;22.14;;;21.93;;
50417;SDS011;36346;48.280;14.292;2024-02-28T02:36:39;22.44;;;22.20;;
50417;SDS011;36346;48.280;14.292;2024-02-28T02:39:06;21.74;;;21.58;;
50417;SDS011;36346;48.280;14.292;2024-02-28T02:41:35;22.19;;;22.14;;
50417;SDS011;36346;48.280;14.292;2024-02-28T02:44:04;21.96;;;21.93;;
50417;SDS011;36346;48.280;14.292;2024-02-28T02:46:32;22.26;;;22.17;;
50417;SDS011;36346;48.280;14.292;2024-02-28T02:49:00;22.47;;;22.41;;
50417;SDS011;36346;48.280;14.292;2024-02-28T02:51:28;22.16;;;22.09;;
50417;SDS011;36346;48.280;14.292;2024-02-28T02:53:56;21.85;;;21.83;;
50417;SDS011;36346;48.280;14.292;2024-02-28T02:56:24;21.82;;;21.81;;
50417;SDS011;36346;48.280;14.292;2024-02-28T02:58:52;21.72;;;21.68;;
50417;SDS011;36346;48.280;14.292;2024-02-28T03:01:20;21.75;;;21.75;;
50417;SDS011;36346;48.280;14.292;2024-02-28T03:03:48;21.78;;;21.77;;
50417;SDS011;36346;48.280;14.292;2024-02-28T03:06:16;22.04;;;21.98;;
50417;SDS011;36346;48.280;14.292;2024-02-28T03:08:44;22.11;;;22.04;;
50417;SDS011;36346;48.280;14.292;2024-02-28T03:11:12;22.50;;;22.32;;
50417;SDS011;36346;48.280;14.292;2024-02-28T03:13:40;23.02;;;22.84;;
50417;SDS011;36346;48.280;14.292;2024-02-28T03:16:08;22.61;;;22.57;;
50417;SDS011;36346;48.280;14.292;2024-02-28T03:18:36;22.00;;;21.98;;
50417;SDS011;36346;48.280;14.292;2024-02-28T03:21:05;22.32;;;22.21;;
50417;SDS011;36346;48.280;14.292;2024-02-28T03:23:33;22.73;;;22.72;;
50417;SDS011;36346;48.280;14.292;2024-02-28T03:26:03;22.24;;;22.20;;
50417;SDS011;36346;48.280;14.292;2024-02-28T03:28:31;22.16;;;22.06;;
50417;SDS011;36346;48.280;14.292;2024-02-28T03:30:59;22.06;;;21.97;;
50417;SDS011;36346;48.280;14.292;2024-02-28T03:33:27;22.70;;;22.63;;
50417;SDS011;36346;48.280;14.292;2024-02-28T03:35:57;23.94;;;23.88;;
50417;SDS011;36346;48.280;14.292;2024-02-28T03:38:25;22.92;;;22.78;;
50417;SDS011;36346;48.280;14.292;2024-02-28T03:40:53;23.38;;;23.28;;
50417;SDS011;36346;48.280;14.292;2024-02-28T03:43:21;23.04;;;22.95;;
50417;SDS011;36346;48.280;14.292;2024-02-28T03:45:49;23.21;;;23.11;;
50417;SDS011;36346;48.280;14.292;2024-02-28T03:48:17;23.82;;;23.68;;
50417;SDS011;36346;48.280;14.292;2024-02-28T03:50:46;24.05;;;23.88;;
50417;SDS011;36346;48.280;14.292;2024-02-28T03:53:14;22.54;;;22.51;;
50417;SDS011;36346;48.280;14.292;2024-02-28T03:55:42;23.09;;;23.00;;
50417;SDS011;36346;48.280;14.292;2024-02-28T03:58:11;24.01;;;23.93;;
50417;SDS011;36346;48.280;14.292;2024-02-28T04:00:39;23.91;;;23.81;;
50417;SDS011;36346;48.280;14.292;2024-02-28T04:03:08;24.03;;;23.91;;
50417;SDS011;36346;48.280;14.292;2024-02-28T04:05:36;24.49;;;24.31;;
50417;SDS011;36346;48.280;14.292;2024-02-28T04:08:04;24.40;;;24.35;;
50417;SDS011;36346;48.280;14.292;2024-02-28T04:10:32;23.69;;;23.56;;
50417;SDS011;36346;48.280;14.292;2024-02-28T04:13:01;23.76;;;23.68;;
50417;SDS011;36346;48.280;14.292;2024-02-28T04:15:30;24.07;;;23.90;;
50417;SDS011;36346;48.280;14.292;2024-02-28T04:17:58;24.67;;;24.39;;
50417;SDS011;36346;48.280;14.292;2024-02-28T04:20:26;24.85;;;24.61;;
50417;SDS011;36346;48.280;14.292;2024-02-28T04:22:55;27.40;;;27.26;;
50417;SDS011;36346;48.280;14.292;2024-02-28T04:25:23;24.96;;;24.82;;
50417;SDS011;36346;48.280;14.292;2024-02-28T04:27:51;23.97;;;23.95;;
50417;SDS011;36346;48.280;14.292;2024-02-28T04:30:19;24.68;;;24.59;;
50417;SDS011;36346;48.280;14.292;2024-02-28T04:32:47;24.65;;;24.63;;
50417;SDS011;36346;48.280;14.292;2024-02-28T04:35:16;24.43;;;24.15;;
50417;SDS011;36346;48.280;14.292;2024-02-28T04:37:46;24.63;;;24.24;;
50417;SDS011;36346;48.280;14.292;2024-02-28T04:40:14;24.18;;;23.98;;
50417;SDS011;36346;48.280;14.292;2024-02-28T04:42:43;24.90;;;24.87;;
50417;SDS011;36346;48.280;14.292;2024-02-28T04:45:11;24.51;;;24.47;;
50417;SDS011;36346;48.280;14.292;2024-02-28T04:47:39;24.86;;;24.79;;
50417;SDS011;36346;48.280;14.292;2024-02-28T04:50:11;25.63;;;25.55;;
50417;SDS011;36346;48.280;14.292;2024-02-28T04:52:40;26.35;;;26.24;;
50417;SDS011;36346;48.280;14.292;2024-02-28T04:55:08;25.62;;;25.49;;
50417;SDS011;36346;48.280;14.292;2024-02-28T04:57:36;25.99;;;25.94;;
50417;SDS011;36346;48.280;14.292;2024-02-28T05:00:04;27.64;;;27.44;;
50417;SDS011;36346;48.280;14.292;2024-02-28T05:02:33;26.16;;;26.06;;
50417;SDS011;36346;48.280;14.292;2024-02-28T05:05:01;25.48;;;25.41;;
50417;SDS011;36346;48.280;14.292;2024-02-28T05:07:30;26.81;;;26.74;;
50417;SDS011;36346;48.280;14.292;2024-02-28T05:09:58;25.91;;;25.75;;
50417;SDS011;36346;48.280;14.292;2024-02-28T05:12:26;25.15;;;25.07;;
50417;SDS011;36346;48.280;14.292;2024-02-28T05:14:54;25.73;;;25.68;;
50417;SDS011;36346;48.280;14.292;2024-02-28T05:17:22;25.97;;;25.87;;
50417;SDS011;36346;48.280;14.292;2024-02-28T05:19:50;26.12;;;26.03;;
50417;SDS011;36346;48.280;14.292;2024-02-28T05:22:18;26.68;;;26.40;;
50417;SDS011;36346;48.280;14.292;2024-02-28T05:24:46;26.73;;;26.60;;
50417;SDS011;36346;48.280;14.292;2024-02-28T05:27:15;26.42;;;26.15;;
50417;SDS011;36346;48.280;14.292;2024-02-28T05:29:43;27.49;;;27.01;;
50417;SDS011;36346;48.280;14.292;2024-02-28T05:32:11;27.18;;;27.02;;
50417;SDS011;36346;48.280;14.292;2024-02-28T05:34:40;27.51;;;27.32;;
50417;SDS011;36346;48.280;14.292;2024-02-28T05:37:08;27.99;;;27.55;;
50417;SDS011;36346;48.280;14.292;2024-02-28T05:39:37;29.90;;;29.65;;
50417;SDS011;36346;48.280;14.292;2024-02-28T05:42:05;27.92;;;27.80;;
50417;SDS011;36346;48.280;14.292;2024-02-28T05:44:33;29.30;;;28.89;;
50417;SDS011;36346;48.280;14.292;2024-02-28T05:47:02;28.68;;;28.42;;
50417;SDS011;36346;48.280;14.292;2024-02-28T05:49:30;29.60;;;29.32;;
50417;SDS011;36346;48.280;14.292;2024-02-28T05:51:58;28.22;;;28.17;;
50417;SDS011;36346;48.280;14.292;2024-02-28T05:54:26;27.04;;;27.03;;
50417;SDS011;36346;48.280;14.292;2024-02-28T05:56:57;27.31;;;27.17;;
50417;SDS011;36346;48.280;14.292;2024-02-28T05:59:25;27.79;;;27.60;;
50417;SDS011;36346;48.280;14.292;2024-02-28T06:01:53;27.41;;;27.22;;
50417;SDS011;36346;48.280;14.292;2024-02-28T06:04:22;27.46;;;27.42;;
50417;SDS011;36346;48.280;14.292;2024-02-28T06:06:50;27.92;;;27.74;;
50417;SDS011;36346;48.280;14.292;2024-02-28T06:09:18;27.45;;;27.30;;
50417;SDS011;36346;48.280;14.292;2024-02-28T06:11:46;27.64;;;27.55;;
50417;SDS011;36346;48.280;14.292;2024-02-28T06:14:14;27.54;;;27.39;;
50417;SDS011;36346;48.280;14.292;2024-02-28T06:16:42;27.05;;;27.00;;
50417;SDS011;36346;48.280;14.292;2024-02-28T06:19:10;28.21;;;28.06;;
50417;SDS011;36346;48.280;14.292;2024-02-28T06:21:38;29.07;;;28.68;;
50417;SDS011;36346;48.280;14.292;2024-02-28T06:24:06;27.52;;;27.50;;
50417;SDS011;36346;48.280;14.292;2024-02-28T06:26:34;27.01;;;26.86;;
50417;SDS011;36346;48.280;14.292;2024-02-28T06:29:02;27.32;;;27.23;;
50417;SDS011;36346;48.280;14.292;2024-02-28T06:31:32;27.03;;;26.95;;
50417;SDS011;36346;48.280;14.292;2024-02-28T06:34:00;27.76;;;27.52;;
50417;SDS011;36346;48.280;14.292;2024-02-28T06:36:30;26.73;;;26.70;;
50417;SDS011;36346;48.280;14.292;2024-02-28T06:38:58;27.13;;;27.07;;
50417;SDS011;36346;48.280;14.292;2024-02-28T06:41:26;26.71;;;26.68;;
50417;SDS011;36346;48.280;14.292;2024-02-28T06:43:54;26.69;;;26.42;;
50417;SDS011;36346;48.280;14.292;2024-02-28T06:46:22;28.25;;;28.05;;
50417;SDS011;36346;48.280;14.292;2024-02-28T06:48:50;28.21;;;28.11;;
50417;SDS011;36346;48.280;14.292;2024-02-28T06:51:18;26.58;;;26.44;;
50417;SDS011;36346;48.280;14.292;2024-02-28T06:53:46;26.66;;;26.52;;
50417;SDS011;36346;48.280;14.292;2024-02-28T06:56:14;26.35;;;26.29;;
50417;SDS011;36346;48.280;14.292;2024-02-28T06:58:42;26.76;;;26.50;;
50417;SDS011;36346;48.280;14.292;2024-02-28T07:01:10;27.04;;;26.86;;
50417;SDS011;36346;48.280;14.292;2024-02-28T07:03:38;25.42;;;25.34;;
50417;SDS011;36346;48.280;14.292;2024-02-28T07:06:06;25.52;;;25.37;;
50417;SDS011;36346;48.280;14.292;2024-02-28T07:08:34;26.06;;;25.87;;
50417;SDS011;36346;48.280;14.292;2024-02-28T07:11:02;26.14;;;25.92;;
50417;SDS011;36346;48.280;14.292;2024-02-28T07:13:31;25.48;;;25.28;;
50417;SDS011;36346;48.280;14.292;2024-02-28T07:15:59;27.05;;;26.99;;
50417;SDS011;36346;48.280;14.292;2024-02-28T07:18:27;27.35;;;27.15;;
50417;SDS011;36346;48.280;14.292;2024-02-28T07:20:57;27.63;;;27.49;;
50417;SDS011;36346;48.280;14.292;2024-02-28T07:23:25;26.57;;;26.42;;
50417;SDS011;36346;48.280;14.292;2024-02-28T07:25:53;26.29;;;26.14;;
50417;SDS011;36346;48.280;14.292;2024-02-28T07:28:21;26.25;;;26.03;;
50417;SDS011;36346;48.280;14.292;2024-02-28T07:30:49;27.13;;;26.85;;
50417;SDS011;36346;48.280;14.292;2024-02-28T07:33:17;25.53;;;25.46;;
50417;SDS011;36346;48.280;14.292;2024-02-28T07:35:51;26.10;;;25.98;;
50417;SDS011;36346;48.280;14.292;2024-02-28T07:38:20;26.80;;;26.53;;
50417;SDS011;36346;48.280;14.292;2024-02-28T07:40:48;26.31;;;26.18;;
50417;SDS011;36346;48.280;14.292;2024-02-28T07:43:16;27.40;;;27.24;;
50417;SDS011;36346;48.280;14.292;2024-02-28T07:45:44;27.22;;;26.98;;
50417;SDS011;36346;48.280;14.292;2024-02-28T07:48:12;27.28;;;26.95;;
50417;SDS011;36346;48.280;14.292;2024-02-28T07:50:41;27.85;;;27.65;;
50417;SDS011;36346;48.280;14.292;2024-02-28T07:53:09;27.54;;;27.39;;
50417;SDS011;36346;48.280;14.292;2024-02-28T07:55:38;27.71;;;27.43;;
50417;SDS011;36346;48.280;14.292;2024-02-28T07:58:06;27.17;;;26.92;;
50417;SDS011;36346;48.280;14.292;2024-02-28T08:00:34;27.04;;;26.88;;
50417;SDS011;36346;48.280;14.292;2024-02-28T08:03:03;27.08;;;26.99;;
50417;SDS011;36346;48.280;14.292;2024-02-28T08:05:32;27.25;;;27.06;;
50417;SDS011;36346;48.280;14.292;2024-02-28T08:08:05;27.11;;;26.84;;
50417;SDS011;36346;48.280;14.292;2024-02-28T08:10:34;26.71;;;26.46;;
50417;SDS011;36346;48.280;14.292;2024-02-28T08:13:03;29.12;;;28.96;;
50417;SDS011;36346;48.280;14.292;2024-02-28T08:15:31;27.62;;;27.44;;
50417;SDS011;36346;48.280;14.292;2024-02-28T08:18:00;26.87;;;26.81;;
50417;SDS011;36346;48.280;14.292;2024-02-28T08:20:28;27.62;;;27.49;;
50417;SDS011;36346;48.280;14.292;2024-02-28T08:22:56;27.71;;;27.50;;
50417;SDS011;36346;48.280;14.292;2024-02-28T08:25:24;27.52;;;27.36;;
50417;SDS011;36346;48.280;14.292;2024-02-28T08:27:53;27.16;;;27.08;;
50417;SDS011;36346;48.280;14.292;2024-02-28T08:30:21;27.47;;;27.24;;
50417;SDS011;36346;48.280;14.292;2024-02-28T08:32:49;27.43;;;27.29;;
50417;SDS011;36346;48.280;14.292;2024-02-28T08:35:20;29.35;;;29.18;;
50417;SDS011;36346;48.280;14.292;2024-02-28T08:37:48;29.51;;;29.28;;
50417;SDS011;36346;48.280;14.292;2024-02-28T08:40:16;28.17;;;28.15;;
50417;SDS011;36346;48.280;14.292;2024-02-28T08:42:44;27.83;;;27.71;;
50417;SDS011;36346;48.280;14.292;2024-02-28T08:45:14;28.84;;;28.53;;
50417;SDS011;36346;48.280;14.292;2024-02-28T08:47:42;28.69;;;28.58;;
50417;SDS011;36346;48.280;14.292;2024-02-28T08:50:10;29.04;;;28.81;;
50417;SDS011;36346;48.280;14.292;2024-02-28T08:52:38;28.11;;;27.94;;
50417;SDS011;36346;48.280;14.292;2024-02-28T08:55:06;28.28;;;28.08;;
50417;SDS011;36346;48.280;14.292;2024-02-28T08:57:34;28.80;;;28.50;;
50417;SDS011;36346;48.280;14.292;2024-02-28T09:00:03;28.94;;;28.82;;
50417;SDS011;36346;48.280;14.292;2024-02-28T09:02:31;27.69;;;27.59;;
50417;SDS011;36346;48.280;14.292;2024-02-28T09:04:59;28.42;;;28.42;;
50417;SDS011;36346;48.280;14.292;2024-02-28T09:07:27;28.23;;;28.18;;
50417;SDS011;36346;48.280;14.292;2024-02-28T09:09:55;28.02;;;27.90;;
50417;SDS011;36346;48.280;14.292;2024-02-28T09:12:23;28.56;;;28.37;;
50417;SDS011;36346;48.280;14.292;2024-02-28T09:14:51;28.86;;;28.66;;
50417;SDS011;36346;48.280;14.292;2024-02-28T09:17:25;28.99;;;28.79;;
50417;SDS011;36346;48.280;14.292;2024-02-28T09:19:53;29.81;;;29.35;;
50417;SDS011;36346;48.280;14.292;2024-02-28T09:22:22;29.54;;;29.27;;
50417;SDS011;36346;48.280;14.292;2024-02-28T09:24:51;31.39;;;31.02;;
50417;SDS011;36346;48.280;14.292;2024-02-28T09:27:19;32.72;;;32.38;;
50417;SDS011;36346;48.280;14.292;2024-02-28T09:29:47;32.01;;;31.69;;
50417;SDS011;36346;48.280;14.292;2024-02-28T09:32:15;32.16;;;31.86;;
50417;SDS011;36346;48.280;14.292;2024-02-28T09:34:43;33.51;;;33.14;;
50417;SDS011;36346;48.280;14.292;2024-02-28T09:37:11;34.60;;;34.09;;
50417;SDS011;36346;48.280;14.292;2024-02-28T09:39:40;34.56;;;34.15;;
50417;SDS011;36346;48.280;14.292;2024-02-28T09:42:09;35.37;;;34.86;;
50417;SDS011;36346;48.280;14.292;2024-02-28T09:44:37;35.12;;;34.54;;
50417;SDS011;36346;48.280;14.292;2024-02-28T09:47:07;33.97;;;33.78;;
50417;SDS011;36346;48.280;14.292;2024-02-28T09:49:35;34.44;;;34.06;;
50417;SDS011;36346;48.280;14.292;2024-02-28T09:52:06;35.63;;;35.11;;
50417;SDS011;36346;48.280;14.292;2024-02-28T09:54:34;35.75;;;35.18;;
50417;SDS011;36346;48.280;14.292;2024-02-28T09:57:03;35.00;;;34.60;;
50417;SDS011;36346;48.280;14.292;2024-02-28T09:59:32;35.41;;;34.90;;
50417;SDS011;36346;48.280;14.292;2024-02-28T10:02:18;35.53;;;35.14;;
50417;SDS011;36346;48.280;14.292;2024-02-28T10:04:48;36.04;;;35.50;;
50417;SDS011;36346;48.280;14.292;2024-02-28T10:07:17;38.09;;;37.47;;
50417;SDS011;36346;48.280;14.292;2024-02-28T10:09:45;37.87;;;37.26;;
50417;SDS011;36346;48.280;14.292;2024-02-28T10:12:14;37.40;;;36.87;;
50417;SDS011;36346;48.280;14.292;2024-02-28T10:14:42;37.64;;;37.10;;
50417;SDS011;36346;48.280;14.292;2024-02-28T10:17:10;36.98;;;36.53;;
50417;SDS011;36346;48.280;14.292;2024-02-28T10:19:38;37.32;;;36.89;;
50417;SDS011;36346;48.280;14.292;2024-02-28T10:22:06;38.26;;;37.70;;
50417;SDS011;36346;48.280;14.292;2024-02-28T10:24:34;40.14;;;39.38;;
50417;SDS011;36346;48.280;14.292;2024-02-28T10:27:03;39.14;;;38.61;;
50417;SDS011;36346;48.280;14.292;2024-02-28T10:29:31;38.66;;;38.22;;
50417;SDS011;36346;48.280;14.292;2024-02-28T10:32:00;39.11;;;38.67;;
50417;SDS011;36346;48.280;14.292;2024-02-28T10:34:30;39.22;;;38.63;;
50417;SDS011;36346;48.280;14.292;2024-02-28T10:36:59;39.31;;;38.65;;
50417;SDS011;36346;48.280;14.292;2024-02-28T10:39:27;38.46;;;37.77;;
50417;SDS011;36346;48.280;14.292;2024-02-28T10:41:58;38.51;;;37.95;;
50417;SDS011;36346;48.280;14.292;2024-02-28T10:44:28;38.84;;;38.17;;
50417;SDS011;36346;48.280;14.292;2024-02-28T10:46:59;38.29;;;37.83;;
50417;SDS011;36346;48.280;14.292;2024-02-28T10:49:28;38.99;;;38.33;;
50417;SDS011;36346;48.280;14.292;2024-02-28T10:51:57;38.43;;;37.93;;
50417;SDS011;36346;48.280;14.292;2024-02-28T10:54:29;39.10;;;38.27;;
50417;SDS011;36346;48.280;14.292;2024-02-28T10:56:58;38.68;;;38.13;;
50417;SDS011;36346;48.280;14.292;2024-02-28T10:59:28;40.64;;;39.87;;
50417;SDS011;36346;48.280;14.292;2024-02-28T11:01:57;41.78;;;40.85;;
50417;SDS011;36346;48.280;14.292;2024-02-28T11:04:26;41.55;;;40.60;;
50417;SDS011;36346;48.280;14.292;2024-02-28T11:06:55;40.67;;;40.00;;
50417;SDS011;36346;48.280;14.292;2024-02-28T11:09:25;39.46;;;38.92;;
50417;SDS011;36346;48.280;14.292;2024-02-28T11:11:54;40.30;;;39.40;;
50417;SDS011;36346;48.280;14.292;2024-02-28T11:14:24;39.82;;;39.08;;
50417;SDS011;36346;48.280;14.292;2024-02-28T11:17:00;39.42;;;38.81;;
50417;SDS011;36346;48.280;14.292;2024-02-28T11:19:33;37.69;;;37.21;;
50417;SDS011;36346;48.280;14.292;2024-02-28T11:22:04;38.60;;;38.23;;
50417;SDS011;36346;48.280;14.292;2024-02-28T11:24:34;38.10;;;37.70;;
50417;SDS011;36346;48.280;14.292;2024-02-28T11:27:05;38.68;;;38.27;;
50417;SDS011;36346;48.280;14.292;2024-02-28T11:29:34;42.76;;;42.21;;
50417;SDS011;36346;48.280;14.292;2024-02-28T11:32:02;40.46;;;39.86;;
50417;SDS011;36346;48.280;14.292;2024-02-28T11:34:33;37.52;;;36.97;;
50417;SDS011;36346;48.280;14.292;2024-02-28T11:37:02;38.42;;;37.90;;
50417;SDS011;36346;48.280;14.292;2024-02-28T11:39:32;38.67;;;38.10;;
50417;SDS011;36346;48.280;14.292;2024-02-28T11:44:52;37.93;;;37.31;;
50417;SDS011;36346;48.280;14.292;2024-02-28T11:47:27;38.33;;;37.58;;
50417;SDS011;36346;48.280;14.292;2024-02-28T11:49:59;38.37;;;37.82;;
50417;SDS011;36346;48.280;14.292;2024-02-28T11:52:32;37.83;;;37.29;;
50417;SDS011;36346;48.280;14.292;2024-02-28T11:55:01;37.94;;;37.43;;
50417;SDS011;36346;48.280;14.292;2024-02-28T11:57:30;37.34;;;36.85;;
50417;SDS011;36346;48.280;14.292;2024-02-28T12:00:05;38.25;;;37.73;;
50417;SDS011;36346;48.280;14.292;2024-02-28T12:02:36;37.71;;;37.07;;
50417;SDS011;36346;48.280;14.292;2024-02-28T12:05:04;37.23;;;36.65;;
50417;SDS011;36346;48.280;14.292;2024-02-28T12:07:33;37.36;;;36.78;;
50417;SDS011;36346;48.280;14.292;2024-02-28T12:10:01;36.91;;;36.43;;
50417;SDS011;36346;48.280;14.292;2024-02-28T12:12:29;36.72;;;36.26;;
50417;SDS011;36346;48.280;14.292;2024-02-28T12:14:57;38.01;;;37.43;;
50417;SDS011;36346;48.280;14.292;2024-02-28T12:17:27;37.01;;;36.62;;
50417;SDS011;36346;48.280;14.292;2024-02-28T12:19:55;37.68;;;37.06;;
50417;SDS011;36346;48.280;14.292;2024-02-28T12:22:23;37.52;;;37.02;;
50417;SDS011;36346;48.280;14.292;2024-02-28T12:24:51;34.93;;;34.57;;
50417;SDS011;36346;48.280;14.292;2024-02-28T12:27:19;34.80;;;34.41;;
50417;SDS011;36346;48.280;14.292;2024-02-28T12:29:47;35.33;;;34.87;;
50417;SDS011;36346;48.280;14.292;2024-02-28T12:32:15;36.66;;;36.10;;
50417;SDS011;36346;48.280;14.292;2024-02-28T12:34:45;37.10;;;36.36;;
50417;SDS011;36346;48.280;14.292;2024-02-28T12:37:13;36.63;;;35.97;;
50417;SDS011;36346;48.280;14.292;2024-02-28T12:39:41;37.59;;;37.06;;
50417;SDS011;36346;48.280;14.292;2024-02-28T12:42:09;37.99;;;37.49;;
50417;SDS011;36346;48.280;14.292;2024-02-28T12:44:37;37.18;;;36.55;;
50417;SDS011;36346;48.280;14.292;2024-02-28T12:47:06;37.49;;;36.79;;
50417;SDS011;36346;48.280;14.292;2024-02-28T12:49:34;37.01;;;36.30;;
50417;SDS011;36346;48.280;14.292;2024-02-28T12:52:02;36.87;;;36.30;;
50417;SDS011;36346;48.280;14.292;2024-02-28T12:54:31;37.07;;;36.52;;
50417;SDS011;36346;48.280;14.292;2024-02-28T12:56:58;36.63;;;36.17;;
50417;SDS011;36346;48.280;14.292;2024-02-28T12:59:30;37.52;;;36.92;;
50417;SDS011;36346;48.280;14.292;2024-02-28T13:01:58;37.19;;;36.74;;
50417;SDS011;36346;48.280;14.292;2024-02-28T13:04:26;37.09;;;36.48;;
50417;SDS011;36346;48.280;14.292;2024-02-28T13:06:55;39.29;;;38.75;;
50417;SDS011;36346;48.280;14.292;2024-02-28T13:09:24;42.03;;;41.49;;
50417;SDS011;36346;48.280;14.292;2024-02-28T13:11:52;37.94;;;37.33;;
50417;SDS011;36346;48.280;14.292;2024-02-28T13:14:20;38.40;;;37.79;;
50417;SDS011;36346;48.280;14.292;2024-02-28T13:16:48;37.28;;;36.77;;
50417;SDS011;36346;48.280;14.292;2024-02-28T13:19:16;36.66;;;36.25;;
50417;SDS011;36346;48.280;14.292;2024-02-28T13:21:44;37.34;;;36.90;;
50417;SDS011;36346;48.280;14.292;2024-02-28T13:24:13;35.97;;;35.38;;
50417;SDS011;36346;48.280;14.292;2024-02-28T13:26:42;35.16;;;34.71;;
50417;SDS011;36346;48.280;14.292;2024-02-28T13:29:11;36.91;;;36.34;;
50417;SDS011;36346;48.280;14.292;2024-02-28T13:31:39;37.41;;;36.97;;
50417;SDS011;36346;48.280;14.292;2024-02-28T13:34:07;38.03;;;37.36;;
50417;SDS011;36346;48.280;14.292;2024-02-28T13:36:35;37.78;;;36.99;;
50417;SDS011;36346;48.280;14.292;2024-02-28T13:39:04;35.96;;;35.55;;
50417;SDS011;36346;48.280;14.292;2024-02-28T13:41:32;37.09;;;36.58;;
50417;SDS011;36346;48.280;14.292;2024-02-28T13:44:01;34.88;;;34.38;;
50417;SDS011;36346;48.280;14.292;2024-02-28T13:46:29;35.63;;;35.00;;
50417;SDS011;36346;48.280;14.292;2024-02-28T13:48:58;34.50;;;34.05;;
50417;SDS011;36346;48.280;14.292;2024-02-28T13:51:26;35.41;;;34.73;;
50417;SDS011;36346;48.280;14.292;2024-02-28T13:53:54;35.12;;;34.42;;
50417;SDS011;36346;48.280;14.292;2024-02-28T13:56:22;35.17;;;34.50;;
50417;SDS011;36346;48.280;14.292;2024-02-28T13:58:50;36.09;;;35.45;;
50417;SDS011;36346;48.280;14.292;2024-02-28T14:01:20;35.64;;;35.02;;
50417;SDS011;36346;48.280;14.292;2024-02-28T14:03:49;36.61;;;35.87;;
50417;SDS011;36346;48.280;14.292;2024-02-28T14:06:17;37.05;;;36.18;;
50417;SDS011;36346;48.280;14.292;2024-02-28T14:08:45;35.14;;;34.59;;
50417;SDS011;36346;48.280;14.292;2024-02-28T14:11:14;35.26;;;34.60;;
50417;SDS011;36346;48.280;14.292;2024-02-28T14:13:44;36.21;;;35.67;;
50417;SDS011;36346;48.280;14.292;2024-02-28T14:16:12;35.86;;;35.24;;
50417;SDS011;36346;48.280;14.292;2024-02-28T14:18:40;35.70;;;35.17;;